createdAt,value
2023-04-15T00:00:16.101Z,1.90
2023-04-15T00:00:47.015Z,2.20
2023-04-15T00:01:17.951Z,2.20
2023-04-15T00:01:48.870Z,2.20
2023-04-15T00:02:20.207Z,2.10
2023-04-15T00:02:50.486Z,1.80
2023-04-15T00:03:20.227Z,2.20
2023-04-15T00:03:51.890Z,2.20
2023-04-15T00:04:53.293Z,2.30
2023-04-15T00:05:23.724Z,2.00
2023-04-15T00:05:54.628Z,2.30
2023-04-15T00:06:25.533Z,2.10
2023-04-15T00:06:56.326Z,2.20
2023-04-15T00:07:27.248Z,2.30
2023-04-15T00:07:58.172Z,2.30
2023-04-15T00:08:31.442Z,2.30
2023-04-15T00:09:00.219Z,2.10
2023-04-15T00:09:30.717Z,2.40
2023-04-15T00:10:01.644Z,1.90
2023-04-15T00:10:32.602Z,2.10
2023-04-15T00:11:03.512Z,2.30
2023-04-15T00:11:34.419Z,2.40
2023-04-15T00:12:05.307Z,2.30
2023-04-15T00:12:36.208Z,2.00
2023-04-15T00:13:07.134Z,2.30
2023-04-15T00:13:38.066Z,2.10
2023-04-15T00:14:09.004Z,2.20
2023-04-15T00:14:39.910Z,2.00
2023-04-15T00:15:10.806Z,2.20
2023-04-15T00:15:41.706Z,2.20
2023-04-15T00:16:12.654Z,2.50
2023-04-15T00:16:43.619Z,2.00
2023-04-15T00:17:14.536Z,2.10
2023-04-15T00:17:45.514Z,2.00
2023-04-15T00:18:15.969Z,2.30
2023-04-15T00:18:47.096Z,2.30
2023-04-15T00:19:17.483Z,2.20
2023-04-15T00:19:48.393Z,2.10
2023-04-15T00:20:19.307Z,1.80
2023-04-15T00:20:50.233Z,2.00
2023-04-15T00:21:21.116Z,2.20
2023-04-15T00:22:22.948Z,2.10
2023-04-15T00:22:53.864Z,2.00
2023-04-15T00:23:24.764Z,2.20
2023-04-15T00:23:55.692Z,2.40
2023-04-15T00:24:26.602Z,2.50
2023-04-15T00:24:57.499Z,1.90
2023-04-15T00:25:28.313Z,2.20
2023-04-15T00:26:00.305Z,2.50
2023-04-15T00:26:30.185Z,2.00
2023-04-15T00:26:59.800Z,2.20
2023-04-15T00:27:31.766Z,2.10
2023-04-15T00:28:02.733Z,1.90
2023-04-15T00:28:33.617Z,2.00
2023-04-15T00:29:04.546Z,2.10
2023-04-15T00:29:35.446Z,2.00
2023-04-15T00:30:06.358Z,1.90
2023-04-15T00:30:37.279Z,2.30
2023-04-15T00:31:08.276Z,1.90
2023-04-15T00:31:38.758Z,1.90
2023-04-15T00:32:09.708Z,1.90
2023-04-15T00:32:40.639Z,2.10
2023-04-15T00:33:11.564Z,2.00
2023-04-15T00:33:41.083Z,2.00
2023-04-15T00:34:12.986Z,2.10
2023-04-15T00:35:14.815Z,1.60
2023-04-15T00:35:45.723Z,2.20
2023-04-15T00:36:16.654Z,2.20
2023-04-15T00:36:47.578Z,2.10
2023-04-15T00:37:18.485Z,2.00
2023-04-15T00:37:48.351Z,1.70
2023-04-15T00:38:20.264Z,1.70
2023-04-15T00:38:51.161Z,2.00
2023-04-15T00:39:52.901Z,2.10
2023-04-15T00:40:23.722Z,2.00
2023-04-15T00:40:54.629Z,1.80
2023-04-15T00:41:25.558Z,2.00
2023-04-15T00:41:56.444Z,2.10
2023-04-15T00:42:27.386Z,1.80
2023-04-15T00:42:58.297Z,2.00
2023-04-15T00:43:29.194Z,1.80
2023-04-15T00:44:00.111Z,2.20
2023-04-15T00:44:31.001Z,1.90
2023-04-15T00:45:01.934Z,1.80
2023-04-15T00:45:32.855Z,1.80
2023-04-15T00:46:03.664Z,2.10
2023-04-15T00:46:34.595Z,1.80
2023-04-15T00:47:05.406Z,2.10
2023-04-15T00:47:36.467Z,1.90
2023-04-15T00:48:07.445Z,2.10
2023-04-15T00:48:38.342Z,1.50
2023-04-15T00:49:10.792Z,2.00
2023-04-15T00:49:40.196Z,2.20
2023-04-15T00:50:11.142Z,1.90
2023-04-15T00:50:42.069Z,1.70
2023-04-15T00:51:12.975Z,1.80
2023-04-15T00:51:43.891Z,2.30
2023-04-15T00:52:14.829Z,2.50
2023-04-15T00:52:45.796Z,2.00
2023-04-15T00:53:16.694Z,1.90
2023-04-15T00:53:47.599Z,1.90
2023-04-15T00:54:18.551Z,1.90
2023-04-15T00:54:49.446Z,1.80
2023-04-15T00:55:20.379Z,2.00
2023-04-15T00:55:51.293Z,2.00
2023-04-15T00:56:22.233Z,2.00
2023-04-15T00:57:24.038Z,2.20
2023-04-15T00:57:54.929Z,1.80
2023-04-15T00:58:25.821Z,1.90
2023-04-15T00:58:56.720Z,1.70
2023-04-15T00:59:27.612Z,1.50
2023-04-15T00:59:58.559Z,1.80
2023-04-15T01:00:29.470Z,2.10
2023-04-15T01:01:00.284Z,2.00
2023-04-15T01:01:31.207Z,2.10
2023-04-15T01:02:02.209Z,1.80
2023-04-15T01:02:33.018Z,1.70
2023-04-15T01:03:03.686Z,1.70
2023-04-15T01:03:34.446Z,1.60
2023-04-15T01:04:05.181Z,1.90
2023-04-15T01:04:35.680Z,2.00
2023-04-15T01:05:37.466Z,1.80
2023-04-15T01:06:08.364Z,2.10
2023-04-15T01:06:39.250Z,2.00
2023-04-15T01:07:10.178Z,1.90
2023-04-15T01:07:41.084Z,2.00
2023-04-15T01:08:11.988Z,1.80
2023-04-15T01:08:42.869Z,1.90
2023-04-15T01:09:13.763Z,1.80
2023-04-15T01:09:44.680Z,1.70
2023-04-15T01:10:15.581Z,1.80
2023-04-15T01:10:46.490Z,1.80
2023-04-15T01:11:17.382Z,1.90
2023-04-15T01:11:48.310Z,1.80
2023-04-15T01:12:19.223Z,2.00
2023-04-15T01:12:50.111Z,1.80
2023-04-15T01:13:21.012Z,1.80
2023-04-15T01:13:51.962Z,1.90
2023-04-15T01:14:22.446Z,2.00
2023-04-15T01:14:53.354Z,1.80
2023-04-15T01:15:24.244Z,1.80
2023-04-15T01:15:55.166Z,1.70
2023-04-15T01:16:26.079Z,1.80
2023-04-15T01:16:57.045Z,2.00
2023-04-15T01:17:27.983Z,1.60
2023-04-15T01:17:58.913Z,1.90
2023-04-15T01:18:28.435Z,1.90
2023-04-15T01:19:00.561Z,1.90
2023-04-15T01:19:31.276Z,1.70
2023-04-15T01:20:01.807Z,1.90
2023-04-15T01:20:32.215Z,1.80
2023-04-15T01:21:01.749Z,1.80
2023-04-15T01:21:33.661Z,1.70
2023-04-15T01:22:04.546Z,1.60
2023-04-15T01:22:34.045Z,1.90
2023-04-15T01:23:05.977Z,1.60
2023-04-15T01:23:36.904Z,1.50
2023-04-15T01:24:07.802Z,1.80
2023-04-15T01:24:38.709Z,2.10
2023-04-15T01:25:09.622Z,1.70
2023-04-15T01:25:40.514Z,1.70
2023-04-15T01:26:11.413Z,1.90
2023-04-15T01:26:43.510Z,1.70
2023-04-15T01:27:12.890Z,2.00
2023-04-15T01:27:43.790Z,2.50
2023-04-15T01:28:15.401Z,2.00
2023-04-15T01:28:44.487Z,1.60
2023-04-15T01:29:16.467Z,2.00
2023-04-15T01:29:47.389Z,1.90
2023-04-15T01:30:16.895Z,2.00
2023-04-15T01:30:48.789Z,2.00
2023-04-15T01:31:19.730Z,1.90
2023-04-15T01:31:50.800Z,1.80
2023-04-15T01:32:21.283Z,1.70
2023-04-15T01:32:52.271Z,1.60
2023-04-15T01:33:23.176Z,1.90
2023-04-15T01:33:54.087Z,1.70
2023-04-15T01:34:24.562Z,1.80
2023-04-15T01:34:55.456Z,1.80
2023-04-15T01:35:26.392Z,1.70
2023-04-15T01:35:57.297Z,1.80
2023-04-15T01:36:28.185Z,2.10
2023-04-15T01:36:59.084Z,1.70
2023-04-15T01:37:30.004Z,1.80
2023-04-15T01:38:00.901Z,1.80
2023-04-15T01:38:31.805Z,1.90
2023-04-15T01:39:02.893Z,1.70
2023-04-15T01:39:33.411Z,1.80
2023-04-15T01:40:04.309Z,1.70
2023-04-15T01:40:33.839Z,1.60
2023-04-15T01:41:05.789Z,1.70
2023-04-15T01:41:36.699Z,1.90
2023-04-15T01:42:07.603Z,2.00
2023-04-15T01:42:38.562Z,1.90
2023-04-15T01:43:09.453Z,1.50
2023-04-15T01:43:40.343Z,1.80
2023-04-15T01:44:11.230Z,1.60
2023-04-15T01:44:42.127Z,1.80
2023-04-15T01:45:13.012Z,1.70
2023-04-15T01:45:43.950Z,1.70
2023-04-15T01:46:14.839Z,1.80
2023-04-15T01:46:45.830Z,2.10
2023-04-15T01:47:16.720Z,1.60
2023-04-15T01:47:47.666Z,1.50
2023-04-15T01:48:49.048Z,2.00
2023-04-15T01:49:19.974Z,1.50
2023-04-15T01:49:50.854Z,1.60
2023-04-15T01:50:21.761Z,1.90
2023-04-15T01:50:52.685Z,1.80
2023-04-15T01:51:23.609Z,1.60
2023-04-15T01:51:54.508Z,2.00
2023-04-15T01:52:25.434Z,1.70
2023-04-15T01:52:56.328Z,1.30
2023-04-15T01:53:27.216Z,1.90
2023-04-15T01:53:58.103Z,1.70
2023-04-15T01:54:29.034Z,1.60
2023-04-15T01:54:59.954Z,1.50
2023-04-15T01:55:30.850Z,1.60
2023-04-15T01:56:02.832Z,1.90
2023-04-15T01:56:32.725Z,1.80
2023-04-15T01:57:03.629Z,2.20
2023-04-15T01:57:34.542Z,1.70
2023-04-15T01:58:05.419Z,1.80
2023-04-15T01:58:36.346Z,1.70
2023-04-15T01:59:07.275Z,1.90
2023-04-15T01:59:38.178Z,1.80
2023-04-15T02:00:09.099Z,1.80
2023-04-15T02:00:40.036Z,1.50
2023-04-15T02:01:10.989Z,1.80
2023-04-15T02:01:41.912Z,2.00
2023-04-15T02:02:12.843Z,1.50
2023-04-15T02:02:43.432Z,1.80
2023-04-15T02:03:13.921Z,1.80
2023-04-15T02:03:44.445Z,1.80
2023-04-15T02:04:15.372Z,1.80
2023-04-15T02:04:46.290Z,2.20
2023-04-15T02:05:17.194Z,1.90
2023-04-15T02:05:48.111Z,1.80
2023-04-15T02:06:18.985Z,1.90
2023-04-15T02:06:49.902Z,1.80
2023-04-15T02:07:20.804Z,1.90
2023-04-15T02:07:51.692Z,1.70
2023-04-15T02:08:21.681Z,1.80
2023-04-15T02:08:53.601Z,1.80
2023-04-15T02:09:24.517Z,1.90
2023-04-15T02:09:54.039Z,1.70
2023-04-15T02:10:24.550Z,1.80
2023-04-15T02:10:56.451Z,1.80
2023-04-15T02:11:27.334Z,2.00
2023-04-15T02:11:58.253Z,1.90
2023-04-15T02:12:29.158Z,1.70
2023-04-15T02:13:00.057Z,1.50
2023-04-15T02:13:30.981Z,1.80
2023-04-15T02:14:32.748Z,1.50
2023-04-15T02:15:03.646Z,2.00
2023-04-15T02:15:34.546Z,2.20
2023-04-15T02:16:05.483Z,2.00
2023-04-15T02:16:36.416Z,1.90
2023-04-15T02:17:07.342Z,1.70
2023-04-15T02:17:38.297Z,1.70
2023-04-15T02:18:09.208Z,1.70
2023-04-15T02:18:40.095Z,1.80
2023-04-15T02:19:11.022Z,1.60
2023-04-15T02:19:41.946Z,1.80
2023-04-15T02:20:12.892Z,1.60
2023-04-15T02:20:43.814Z,1.80
2023-04-15T02:21:14.735Z,1.70
2023-04-15T02:21:45.617Z,1.70
2023-04-15T02:22:16.553Z,1.80
2023-04-15T02:22:47.444Z,1.70
2023-04-15T02:23:18.365Z,1.60
2023-04-15T02:23:49.277Z,1.60
2023-04-15T02:24:20.202Z,1.70
2023-04-15T02:24:51.105Z,1.80
2023-04-15T02:25:22.016Z,1.70
2023-04-15T02:25:53.252Z,1.70
2023-04-15T02:26:23.685Z,1.80
2023-04-15T02:26:54.608Z,1.90
2023-04-15T02:27:25.500Z,1.70
2023-04-15T02:27:56.410Z,2.00
2023-04-15T02:28:27.341Z,1.80
2023-04-15T02:28:58.397Z,1.90
2023-04-15T02:29:28.891Z,1.50
2023-04-15T02:29:59.826Z,1.70
2023-04-15T02:30:30.730Z,1.60
2023-04-15T02:31:01.675Z,2.30
2023-04-15T02:32:03.566Z,1.70
2023-04-15T02:32:34.534Z,1.70
2023-04-15T02:33:05.425Z,1.90
2023-04-15T02:33:36.329Z,1.80
2023-04-15T02:34:07.217Z,1.70
2023-04-15T02:34:38.104Z,2.20
2023-04-15T02:35:09.111Z,1.70
2023-04-15T02:35:39.558Z,2.00
2023-04-15T02:36:10.441Z,1.70
2023-04-15T02:36:41.370Z,2.00
2023-04-15T02:37:12.261Z,2.00
2023-04-15T02:37:43.147Z,2.10
2023-04-15T02:38:14.052Z,2.00
2023-04-15T02:38:44.999Z,1.80
2023-04-15T02:39:15.894Z,2.30
2023-04-15T02:39:47.801Z,1.90
2023-04-15T02:40:19.252Z,1.60
2023-04-15T02:40:48.654Z,2.10
2023-04-15T02:41:19.586Z,1.80
2023-04-15T02:41:50.486Z,2.10
2023-04-15T02:42:21.397Z,2.00
2023-04-15T02:42:52.292Z,2.10
2023-04-15T02:43:23.229Z,2.10
2023-04-15T02:43:55.308Z,2.00
2023-04-15T02:44:23.815Z,1.90
2023-04-15T02:44:55.754Z,1.90
2023-04-15T02:45:26.633Z,2.00
2023-04-15T02:45:57.604Z,1.70
2023-04-15T02:46:28.539Z,2.10
2023-04-15T02:46:59.477Z,2.10
2023-04-15T02:47:30.437Z,1.90
2023-04-15T02:48:01.411Z,2.10
2023-04-15T02:48:32.356Z,1.90
2023-04-15T02:49:03.408Z,1.80
2023-04-15T02:49:33.894Z,2.10
2023-04-15T02:50:04.795Z,1.80
2023-04-15T02:50:35.733Z,1.80
2023-04-15T02:51:06.739Z,1.60
2023-04-15T02:51:37.628Z,1.80
2023-04-15T02:52:08.521Z,1.90
2023-04-15T02:52:39.410Z,2.00
2023-04-15T02:53:10.290Z,1.70
2023-04-15T02:54:12.164Z,1.60
2023-04-15T02:54:43.084Z,1.80
2023-04-15T02:55:13.991Z,1.80
2023-04-15T02:55:43.494Z,1.90
2023-04-15T02:56:15.448Z,2.00
2023-04-15T02:56:46.344Z,1.80
2023-04-15T02:57:17.265Z,2.00
2023-04-15T02:57:48.187Z,2.00
2023-04-15T02:58:19.095Z,2.20
2023-04-15T02:58:49.913Z,1.70
2023-04-15T02:59:20.835Z,1.60
2023-04-15T02:59:51.734Z,1.70
2023-04-15T03:00:22.689Z,1.70
2023-04-15T03:00:53.593Z,1.90
2023-04-15T03:01:24.558Z,1.90
2023-04-15T03:01:55.539Z,1.90
2023-04-15T03:02:26.138Z,2.20
2023-04-15T03:02:56.910Z,1.90
2023-04-15T03:03:27.454Z,2.00
2023-04-15T03:03:57.987Z,1.90
2023-04-15T03:04:28.457Z,2.10
2023-04-15T03:04:59.367Z,1.70
2023-04-15T03:05:30.159Z,1.70
2023-04-15T03:06:01.092Z,1.80
2023-04-15T03:06:30.614Z,1.50
2023-04-15T03:07:02.564Z,1.90
2023-04-15T03:07:33.462Z,1.80
2023-04-15T03:08:03.170Z,1.80
2023-04-15T03:08:35.097Z,1.80
2023-04-15T03:09:05.903Z,1.80
2023-04-15T03:09:35.423Z,2.20
2023-04-15T03:10:07.371Z,2.10
2023-04-15T03:10:38.290Z,2.00
2023-04-15T03:11:09.206Z,2.20
2023-04-15T03:11:40.102Z,1.60
2023-04-15T03:12:11.005Z,1.60
2023-04-15T03:12:41.916Z,1.90
2023-04-15T03:13:12.815Z,1.60
2023-04-15T03:13:43.730Z,1.80
2023-04-15T03:14:14.653Z,1.60
2023-04-15T03:14:45.541Z,1.80
2023-04-15T03:15:16.457Z,1.80
2023-04-15T03:15:47.403Z,1.70
2023-04-15T03:16:18.432Z,2.10
2023-04-15T03:16:48.945Z,1.80
2023-04-15T03:17:19.859Z,1.90
2023-04-15T03:17:50.774Z,1.90
2023-04-15T03:18:21.674Z,1.80
2023-04-15T03:18:51.182Z,1.80
2023-04-15T03:19:53.997Z,1.80
2023-04-15T03:20:24.985Z,1.80
2023-04-15T03:20:55.882Z,2.10
2023-04-15T03:21:26.805Z,1.80
2023-04-15T03:21:57.719Z,1.60
2023-04-15T03:22:28.605Z,1.90
2023-04-15T03:22:59.494Z,1.60
2023-04-15T03:23:30.403Z,1.80
2023-04-15T03:24:01.372Z,2.20
2023-04-15T03:24:32.279Z,2.00
2023-04-15T03:25:01.790Z,1.70
2023-04-15T03:25:33.721Z,2.00
2023-04-15T03:26:04.622Z,2.30
2023-04-15T03:26:35.518Z,1.80
2023-04-15T03:27:06.419Z,1.50
2023-04-15T03:27:37.332Z,2.00
2023-04-15T03:28:08.226Z,1.90
2023-04-15T03:28:39.129Z,1.80
2023-04-15T03:29:10.046Z,1.50
2023-04-15T03:29:40.966Z,1.60
2023-04-15T03:30:11.868Z,2.00
2023-04-15T03:30:42.792Z,1.80
2023-04-15T03:31:13.772Z,1.80
2023-04-15T03:31:44.247Z,1.80
2023-04-15T03:32:15.220Z,1.90
2023-04-15T03:32:46.192Z,1.90
2023-04-15T03:33:17.098Z,1.50
2023-04-15T03:33:47.992Z,1.50
2023-04-15T03:34:18.909Z,1.90
2023-04-15T03:34:49.803Z,2.10
2023-04-15T03:35:20.711Z,1.70
2023-04-15T03:35:51.605Z,1.90
2023-04-15T03:36:22.534Z,1.70
2023-04-15T03:37:24.377Z,1.40
2023-04-15T03:37:55.249Z,1.60
2023-04-15T03:38:26.154Z,1.70
2023-04-15T03:38:57.052Z,2.10
2023-04-15T03:39:27.952Z,1.80
2023-04-15T03:39:58.866Z,1.60
2023-04-15T03:40:29.770Z,1.80
2023-04-15T03:41:00.579Z,1.70
2023-04-15T03:41:31.467Z,1.90
2023-04-15T03:42:02.454Z,1.80
2023-04-15T03:42:33.366Z,2.10
2023-04-15T03:43:04.287Z,1.80
2023-04-15T03:43:35.215Z,1.70
2023-04-15T03:44:06.116Z,1.80
2023-04-15T03:44:37.042Z,1.60
2023-04-15T03:45:07.932Z,2.00
2023-04-15T03:45:38.833Z,1.70
2023-04-15T03:46:09.664Z,2.00
2023-04-15T03:46:40.578Z,1.70
2023-04-15T03:47:11.515Z,1.80
2023-04-15T03:47:42.517Z,2.00
2023-04-15T03:48:17.836Z,1.60
2023-04-15T03:48:43.747Z,1.50
2023-04-15T03:49:14.679Z,1.50
2023-04-15T03:49:45.642Z,1.90
2023-04-15T03:50:16.545Z,1.70
2023-04-15T03:50:47.458Z,1.70
2023-04-15T03:51:18.399Z,1.80
2023-04-15T03:51:49.303Z,2.10
2023-04-15T03:52:20.224Z,1.80
2023-04-15T03:52:51.383Z,1.90
2023-04-15T03:53:21.788Z,1.70
2023-04-15T03:53:52.694Z,1.70
2023-04-15T03:54:23.598Z,1.90
2023-04-15T03:54:54.516Z,2.00
2023-04-15T03:55:25.453Z,2.10
2023-04-15T03:55:56.379Z,1.80
2023-04-15T03:56:27.298Z,1.80
2023-04-15T03:56:58.220Z,1.80
2023-04-15T03:57:29.117Z,1.40
2023-04-15T03:58:00.014Z,1.60
2023-04-15T03:58:30.916Z,1.30
2023-04-15T03:59:02.186Z,1.70
2023-04-15T03:59:32.301Z,1.60
2023-04-15T04:00:03.266Z,1.60
2023-04-15T04:00:34.160Z,2.00
2023-04-15T04:01:05.083Z,2.70
2023-04-15T04:01:35.910Z,2.50
2023-04-15T04:02:06.933Z,1.80
2023-04-15T04:02:37.972Z,2.00
2023-04-15T04:03:08.611Z,1.70
2023-04-15T04:03:39.489Z,1.50
2023-04-15T04:04:10.086Z,2.10
2023-04-15T04:04:40.518Z,1.70
2023-04-15T04:05:11.445Z,1.70
2023-04-15T04:05:42.341Z,2.00
2023-04-15T04:06:13.185Z,1.60
2023-04-15T04:06:44.018Z,1.70
2023-04-15T04:07:14.881Z,1.50
2023-04-15T04:07:45.707Z,2.00
2023-04-15T04:08:16.654Z,1.90
2023-04-15T04:08:47.560Z,2.00
2023-04-15T04:09:18.473Z,1.70
2023-04-15T04:09:49.343Z,1.90
2023-04-15T04:10:20.230Z,1.70
2023-04-15T04:10:50.177Z,1.80
2023-04-15T04:11:22.073Z,1.60
2023-04-15T04:11:52.960Z,1.80
2023-04-15T04:12:23.903Z,1.60
2023-04-15T04:12:54.744Z,2.00
2023-04-15T04:13:25.531Z,1.50
2023-04-15T04:13:56.385Z,2.00
2023-04-15T04:14:27.250Z,1.30
2023-04-15T04:14:58.160Z,1.60
2023-04-15T04:15:29.098Z,2.00
2023-04-15T04:16:00.038Z,1.90
2023-04-15T04:16:31.052Z,1.60
2023-04-15T04:17:01.450Z,1.80
2023-04-15T04:17:32.385Z,1.80
2023-04-15T04:18:03.316Z,1.90
2023-04-15T04:18:34.189Z,1.90
2023-04-15T04:19:05.064Z,1.60
2023-04-15T04:19:35.924Z,1.80
2023-04-15T04:20:06.828Z,2.10
2023-04-15T04:20:37.693Z,1.50
2023-04-15T04:21:08.553Z,1.60
2023-04-15T04:21:39.405Z,1.90
2023-04-15T04:22:10.249Z,2.00
2023-04-15T04:22:41.151Z,1.80
2023-04-15T04:23:12.008Z,2.00
2023-04-15T04:23:42.885Z,2.00
2023-04-15T04:24:13.724Z,1.60
2023-04-15T04:24:44.585Z,1.90
2023-04-15T04:25:15.449Z,1.80
2023-04-15T04:25:46.315Z,1.70
2023-04-15T04:26:17.166Z,2.00
2023-04-15T04:26:48.033Z,2.00
2023-04-15T04:27:18.873Z,1.70
2023-04-15T04:27:49.717Z,1.90
2023-04-15T04:28:20.554Z,1.80
2023-04-15T04:28:51.408Z,1.70
2023-04-15T04:29:22.259Z,1.80
2023-04-15T04:29:53.136Z,1.60
2023-04-15T04:30:23.987Z,1.70
2023-04-15T04:30:54.834Z,1.70
2023-04-15T04:31:25.733Z,1.40
2023-04-15T04:31:56.651Z,1.70
2023-04-15T04:32:27.540Z,1.50
2023-04-15T04:32:58.652Z,1.60
2023-04-15T04:33:29.072Z,1.80
2023-04-15T04:33:59.909Z,1.60
2023-04-15T04:34:30.758Z,1.50
2023-04-15T04:35:01.612Z,1.60
2023-04-15T04:35:32.489Z,1.80
2023-04-15T04:36:03.354Z,1.60
2023-04-15T04:36:34.231Z,1.80
2023-04-15T04:37:05.066Z,1.70
2023-04-15T04:37:36.026Z,1.90
2023-04-15T04:38:06.878Z,1.50
2023-04-15T04:38:37.730Z,1.50
2023-04-15T04:39:08.621Z,1.90
2023-04-15T04:39:39.462Z,1.80
2023-04-15T04:40:10.295Z,1.80
2023-04-15T04:40:41.126Z,1.80
2023-04-15T04:41:11.969Z,1.80
2023-04-15T04:41:42.804Z,1.70
2023-04-15T04:42:13.673Z,1.80
2023-04-15T04:42:44.513Z,1.60
2023-04-15T04:43:15.371Z,1.70
2023-04-15T04:43:46.235Z,1.60
2023-04-15T04:44:17.107Z,1.80
2023-04-15T04:44:47.978Z,1.60
2023-04-15T04:45:18.838Z,1.70
2023-04-15T04:45:49.709Z,1.80
2023-04-15T04:46:20.668Z,1.60
2023-04-15T04:46:51.139Z,1.60
2023-04-15T04:47:22.028Z,1.40
2023-04-15T04:47:52.887Z,1.60
2023-04-15T04:48:23.806Z,1.50
2023-04-15T04:48:54.672Z,1.70
2023-04-15T04:49:25.517Z,1.70
2023-04-15T04:49:56.371Z,1.70
2023-04-15T04:50:27.208Z,1.70
2023-04-15T04:50:58.082Z,1.60
2023-04-15T04:51:28.947Z,1.60
2023-04-15T04:51:59.790Z,1.90
2023-04-15T04:52:30.619Z,1.70
2023-04-15T04:53:01.490Z,1.30
2023-04-15T04:53:32.354Z,2.00
2023-04-15T04:54:03.800Z,1.50
2023-04-15T04:54:33.827Z,1.40
2023-04-15T04:55:04.674Z,1.90
2023-04-15T04:55:34.621Z,1.50
2023-04-15T04:56:06.539Z,1.70
2023-04-15T04:56:37.416Z,1.70
2023-04-15T04:57:08.256Z,1.50
2023-04-15T04:57:39.117Z,1.70
2023-04-15T04:58:10.016Z,1.80
2023-04-15T04:58:40.874Z,1.70
2023-04-15T04:59:11.726Z,1.60
2023-04-15T04:59:42.576Z,1.80
2023-04-15T05:00:13.422Z,1.50
2023-04-15T05:00:44.263Z,1.50
2023-04-15T05:01:15.201Z,1.80
2023-04-15T05:01:46.108Z,1.70
2023-04-15T05:02:17.116Z,1.60
2023-04-15T05:02:47.652Z,1.50
2023-04-15T05:03:18.165Z,1.60
2023-04-15T05:03:48.732Z,1.50
2023-04-15T05:04:19.205Z,1.50
2023-04-15T05:04:49.922Z,1.60
2023-04-15T05:05:20.797Z,1.80
2023-04-15T05:05:51.675Z,1.60
2023-04-15T05:06:21.650Z,1.70
2023-04-15T05:06:53.533Z,1.30
2023-04-15T05:07:24.379Z,2.20
2023-04-15T05:07:55.214Z,2.00
2023-04-15T05:08:26.068Z,1.40
2023-04-15T05:08:56.919Z,1.90
2023-04-15T05:09:27.771Z,1.50
2023-04-15T05:09:58.658Z,1.50
2023-04-15T05:10:29.500Z,1.40
2023-04-15T05:11:00.381Z,1.70
2023-04-15T05:11:31.236Z,1.50
2023-04-15T05:12:02.088Z,1.60
2023-04-15T05:12:32.944Z,1.70
2023-04-15T05:13:03.807Z,1.40
2023-04-15T05:13:34.684Z,1.30
2023-04-15T05:14:05.511Z,1.40
2023-04-15T05:14:35.456Z,1.30
2023-04-15T05:15:07.291Z,1.50
2023-04-15T05:15:38.187Z,1.40
2023-04-15T05:16:09.113Z,1.50
2023-04-15T05:16:39.954Z,1.50
2023-04-15T05:17:10.790Z,1.40
2023-04-15T05:17:41.714Z,1.60
2023-04-15T05:18:12.610Z,1.50
2023-04-15T05:18:43.452Z,1.50
2023-04-15T05:19:14.329Z,1.20
2023-04-15T05:19:45.184Z,1.90
2023-04-15T05:20:14.727Z,1.30
2023-04-15T05:20:46.576Z,1.50
2023-04-15T05:21:17.423Z,1.40
2023-04-15T05:21:48.265Z,1.20
2023-04-15T05:22:19.109Z,1.30
2023-04-15T05:22:49.951Z,1.40
2023-04-15T05:23:20.847Z,1.40
2023-04-15T05:23:51.676Z,1.60
2023-04-15T05:24:23.547Z,1.80
2023-04-15T05:24:53.295Z,1.10
2023-04-15T05:25:24.229Z,1.50
2023-04-15T05:25:55.072Z,1.40
2023-04-15T05:26:25.949Z,1.20
2023-04-15T05:26:56.802Z,1.40
2023-04-15T05:27:27.663Z,1.60
2023-04-15T05:27:58.503Z,1.40
2023-04-15T05:28:29.257Z,1.60
2023-04-15T05:29:00.465Z,1.50
2023-04-15T05:29:30.906Z,1.40
2023-04-15T05:30:01.885Z,1.20
2023-04-15T05:30:32.263Z,1.90
2023-04-15T05:31:03.138Z,1.50
2023-04-15T05:31:34.081Z,1.30
2023-04-15T05:32:35.831Z,1.50
2023-04-15T05:33:06.693Z,1.40
2023-04-15T05:33:37.570Z,1.40
2023-04-15T05:34:08.442Z,1.80
2023-04-15T05:34:39.296Z,1.50
2023-04-15T05:35:10.143Z,1.30
2023-04-15T05:35:41.026Z,1.40
2023-04-15T05:36:11.896Z,1.30
2023-04-15T05:36:42.732Z,2.00
2023-04-15T05:37:13.582Z,1.50
2023-04-15T05:37:44.416Z,1.30
2023-04-15T05:38:15.330Z,1.30
2023-04-15T05:38:46.161Z,1.30
2023-04-15T05:39:17.149Z,1.40
2023-04-15T05:39:48.009Z,1.30
2023-04-15T05:40:18.869Z,1.20
2023-04-15T05:40:49.721Z,1.20
2023-04-15T05:41:20.591Z,1.20
2023-04-15T05:41:51.453Z,1.50
2023-04-15T05:42:22.315Z,1.50
2023-04-15T05:42:53.159Z,1.40
2023-04-15T05:43:22.942Z,1.20
2023-04-15T05:43:54.840Z,1.20
2023-04-15T05:44:25.678Z,1.30
2023-04-15T05:44:56.547Z,1.30
2023-04-15T05:45:27.426Z,1.20
2023-04-15T05:45:58.340Z,1.10
2023-04-15T05:46:29.246Z,1.30
2023-04-15T05:47:00.126Z,1.20
2023-04-15T05:47:31.050Z,1.40
2023-04-15T05:48:02.000Z,1.50
2023-04-15T05:48:32.889Z,1.30
2023-04-15T05:49:04.031Z,1.30
2023-04-15T05:50:05.361Z,1.50
2023-04-15T05:50:36.249Z,1.30
2023-04-15T05:51:07.087Z,1.40
2023-04-15T05:51:37.942Z,1.60
2023-04-15T05:52:08.794Z,1.40
2023-04-15T05:52:39.641Z,1.30
2023-04-15T05:53:10.533Z,1.40
2023-04-15T05:53:41.380Z,1.40
2023-04-15T05:54:12.217Z,1.40
2023-04-15T05:54:43.087Z,1.40
2023-04-15T05:55:13.921Z,1.40
2023-04-15T05:55:44.767Z,1.30
2023-04-15T05:56:15.558Z,1.20
2023-04-15T05:56:45.117Z,1.20
2023-04-15T05:57:16.948Z,1.40
2023-04-15T05:57:47.804Z,1.50
2023-04-15T05:58:18.677Z,1.20
2023-04-15T05:58:50.508Z,1.40
2023-04-15T05:59:20.172Z,1.40
2023-04-15T05:59:49.711Z,1.50
2023-04-15T06:00:21.566Z,1.30
2023-04-15T06:00:52.427Z,1.60
2023-04-15T06:01:23.288Z,1.20
2023-04-15T06:01:53.315Z,1.50
2023-04-15T06:02:23.930Z,1.30
2023-04-15T06:02:55.403Z,1.30
2023-04-15T06:03:26.440Z,1.10
2023-04-15T06:03:56.965Z,1.30
2023-04-15T06:04:27.591Z,1.40
2023-04-15T06:04:58.045Z,1.10
2023-04-15T06:05:28.933Z,1.40
2023-04-15T06:05:59.768Z,1.40
2023-04-15T06:06:30.610Z,1.40
2023-04-15T06:07:01.465Z,1.30
2023-04-15T06:07:32.341Z,1.20
2023-04-15T06:08:02.297Z,1.10
2023-04-15T06:08:34.208Z,1.40
2023-04-15T06:09:05.038Z,1.30
2023-04-15T06:09:35.905Z,1.40
2023-04-15T06:10:06.759Z,1.40
2023-04-15T06:11:08.328Z,1.40
2023-04-15T06:11:39.295Z,1.70
2023-04-15T06:12:10.222Z,1.00
2023-04-15T06:12:41.082Z,1.30
2023-04-15T06:13:11.936Z,1.30
2023-04-15T06:13:42.769Z,1.60
2023-04-15T06:14:13.638Z,1.40
2023-04-15T06:14:44.524Z,1.60
2023-04-15T06:15:15.387Z,1.50
2023-04-15T06:15:46.225Z,1.60
2023-04-15T06:16:17.099Z,2.00
2023-04-15T06:16:47.969Z,2.40
2023-04-15T06:17:18.732Z,2.60
2023-04-15T06:17:49.672Z,2.40
2023-04-15T06:18:20.500Z,2.20
2023-04-15T06:18:51.337Z,1.90
2023-04-15T06:19:22.188Z,1.60
2023-04-15T06:19:53.065Z,1.60
2023-04-15T06:20:23.908Z,1.40
2023-04-15T06:20:54.792Z,1.50
2023-04-15T06:21:25.670Z,1.40
2023-04-15T06:21:56.515Z,1.30
2023-04-15T06:22:27.376Z,1.30
2023-04-15T06:22:58.252Z,1.30
2023-04-15T06:23:28.992Z,1.50
2023-04-15T06:23:59.849Z,1.30
2023-04-15T06:24:30.713Z,1.40
2023-04-15T06:25:01.671Z,1.30
2023-04-15T06:25:32.560Z,1.10
2023-04-15T06:26:03.416Z,1.30
2023-04-15T06:26:34.256Z,1.30
2023-04-15T06:27:05.114Z,1.70
2023-04-15T06:27:35.980Z,1.40
2023-04-15T06:28:06.861Z,1.50
2023-04-15T06:28:37.723Z,1.20
2023-04-15T06:29:08.583Z,1.30
2023-04-15T06:29:39.418Z,1.20
2023-04-15T06:30:10.268Z,1.30
2023-04-15T06:30:41.116Z,1.30
2023-04-15T06:31:11.999Z,1.20
2023-04-15T06:31:42.858Z,1.40
2023-04-15T06:32:12.469Z,1.40
2023-04-15T06:32:44.377Z,1.50
2023-04-15T06:33:15.275Z,1.40
2023-04-15T06:33:46.128Z,1.40
2023-04-15T06:34:18.065Z,1.70
2023-04-15T06:34:47.775Z,1.40
2023-04-15T06:35:18.618Z,1.30
2023-04-15T06:35:48.194Z,1.10
2023-04-15T06:36:20.019Z,1.10
2023-04-15T06:36:49.828Z,1.20
2023-04-15T06:37:21.587Z,1.30
2023-04-15T06:37:52.412Z,1.50
2023-04-15T06:38:23.317Z,1.20
2023-04-15T06:38:54.193Z,1.10
2023-04-15T06:39:25.053Z,1.30
2023-04-15T06:39:55.889Z,1.20
2023-04-15T06:40:26.770Z,1.40
2023-04-15T06:41:28.523Z,1.40
2023-04-15T06:41:59.400Z,1.30
2023-04-15T06:42:30.248Z,1.20
2023-04-15T06:43:01.081Z,1.40
2023-04-15T06:43:31.915Z,1.30
2023-04-15T06:44:02.796Z,1.30
2023-04-15T06:44:34.021Z,1.20
2023-04-15T06:45:04.493Z,1.20
2023-04-15T06:45:35.344Z,1.30
2023-04-15T06:46:06.210Z,1.40
2023-04-15T06:46:37.092Z,1.20
2023-04-15T06:47:07.941Z,1.60
2023-04-15T06:47:38.892Z,1.50
2023-04-15T06:48:09.775Z,1.10
2023-04-15T06:48:40.608Z,1.30
2023-04-15T06:49:11.441Z,1.30
2023-04-15T06:49:42.322Z,1.60
2023-04-15T06:50:13.191Z,1.30
2023-04-15T06:50:44.056Z,1.40
2023-04-15T06:51:14.900Z,1.30
2023-04-15T06:51:45.768Z,1.30
2023-04-15T06:52:16.662Z,1.30
2023-04-15T06:52:46.619Z,1.30
2023-04-15T06:53:18.471Z,1.20
2023-04-15T06:54:19.802Z,1.50
2023-04-15T06:54:50.652Z,1.60
2023-04-15T06:55:21.525Z,1.50
2023-04-15T06:55:55.468Z,1.10
2023-04-15T06:56:23.128Z,1.20
2023-04-15T06:56:53.969Z,1.20
2023-04-15T06:57:24.828Z,1.30
2023-04-15T06:57:55.720Z,1.10
2023-04-15T06:58:26.580Z,1.10
2023-04-15T06:58:57.453Z,1.20
2023-04-15T06:59:28.287Z,1.20